ΕΜΥ, Εθνική Μετεωρολογική Υπηρεσία - Δελτία Καιρού, Προγνώσεις

ΑΕΡΟΝΑΥΤΙΛΙΑ

GREEK AIRPORTS CODES

TAF LGZA 200200Z 2003/2012 17020KT 9999 FEW018TCU SCT020 BKN080 TEMPO 2003/2012 4000 RA SCT015 SCT020 BKN070 PROB40 TEMPO 2003/2012 2000 TSRA SCT010 SCT016CB OVC025 TEMPO 2003/2010 15020G30KT=

EUROPEAN AIRPORTS CODES